Time;durP1;ratioP1;P1;durP2;ratioP2;P2;SDS_P1;SDS_P2;PMS_P1;PMS_P2;Temp;Humidity;BMP_temperature;BMP_pressure;BME280_temperature;BME280_humidity;BME280_pressure;Samples;Min_cycle;Max_cycle;Signal;HPM_P1;HPM_P2
2023/12/27 00:10:43;;;;;;;3.25;0.70;;;;;;;6.50;61.88;100242.25;31882451;27;24656;-66
2023/12/27 00:25:43;;;;;;;2.33;0.70;;;;;;;6.09;64.00;100272.34;31878538;27;41670;-66
2023/12/27 00:40:43;;;;;;;2.20;0.50;;;;;;;5.77;64.29;100288.47;31877880;27;44536;-66
2023/12/27 00:55:44;;;;;;;0.28;0.28;;;;;;;5.70;64.76;100322.53;31877416;27;20024;-66
2023/12/27 01:10:44;;;;;;;0.73;0.50;;;;;;;5.56;64.96;100360.75;31874208;27;41625;-65
2023/12/27 01:25:44;;;;;;;1.13;0.47;;;;;;;5.17;64.64;100380.88;31873590;27;43363;-66
2023/12/27 01:40:49;;;;;;;0.47;0.30;;;;;;;4.45;65.07;100391.19;31872764;27;22572;-66
2023/12/27 01:55:51;;;;;;;0.65;0.43;;;;;;;4.11;65.69;100435.28;31872697;27;20042;-66
2023/12/27 02:10:51;;;;;;;3.45;0.85;;;;;;;3.78;66.65;100439.63;31871372;27;20043;-66
2023/12/27 02:25:52;;;;;;;2.60;0.57;;;;;;;3.52;67.16;100463.56;31869738;27;41928;-67
2023/12/27 02:40:53;;;;;;;1.83;0.55;;;;;;;3.34;67.97;100485.06;31869532;27;20059;-66
2023/12/27 02:55:53;;;;;;;1.38;0.50;;;;;;;3.22;68.59;100496.53;31890288;27;20040;-66
2023/12/27 03:10:55;;;;;;;1.30;0.55;;;;;;;3.17;68.82;100512.69;31887590;27;40750;-67
2023/12/27 03:25:56;;;;;;;3.58;0.70;;;;;;;3.13;68.97;100520.91;31887084;27;20063;-67
2023/12/27 03:40:56;;;;;;;2.67;0.77;;;;;;;3.00;69.32;100548.13;31884603;27;20145;-66
2023/12/27 03:55:56;;;;;;;4.30;0.75;;;;;;;2.89;69.04;100555.97;31881277;27;20108;-67
2023/12/27 04:10:57;;;;;;;7.05;1.50;;;;;;;2.75;69.42;100556.97;31878678;27;41753;-66
2023/12/27 04:25:57;;;;;;;12.32;1.02;;;;;;;2.69;69.66;100579.31;31878375;27;20361;-67
2023/12/27 04:40:57;;;;;;;3.95;1.13;;;;;;;2.67;70.00;100591.72;31874789;27;41665;-66
2023/12/27 04:55:57;;;;;;;3.53;0.70;;;;;;;2.58;70.02;100616.03;31874826;27;40232;-66
2023/12/27 05:10:58;;;;;;;5.40;0.70;;;;;;;2.46;70.54;100622.16;31873122;27;41231;-66
2023/12/27 05:25:58;;;;;;;5.10;1.13;;;;;;;2.40;70.44;100659.41;31869523;27;32154;-66
2023/12/27 05:40:58;;;;;;;6.18;1.00;;;;;;;2.32;70.92;100673.94;31867891;27;20384;-66
2023/12/27 05:55:59;;;;;;;4.32;1.10;;;;;;;2.26;70.91;100681.41;31868579;27;42807;-66
2023/12/27 06:10:59;;;;;;;2.47;0.98;;;;;;;2.17;71.50;100696.84;31866982;27;41584;-66
2023/12/27 06:25:59;;;;;;;4.68;1.23;;;;;;;2.10;71.65;100706.06;31883450;27;20185;-66
2023/12/27 06:41:03;;;;;;;2.03;0.80;;;;;;;2.09;71.77;100724.59;31887852;27;41840;-67
2023/12/27 06:56:03;;;;;;;8.55;0.98;;;;;;;2.09;71.83;100733.31;31887802;27;20182;-66
2023/12/27 07:11:03;;;;;;;8.48;1.58;;;;;;;2.24;71.93;100767.41;31884443;27;20501;-67
2023/12/27 07:26:04;;;;;;;10.40;1.10;;;;;;;2.87;71.91;100789.44;31883176;27;42581;-66
2023/12/27 07:41:05;;;;;;;4.38;1.60;;;;;;;3.94;70.96;100817.03;31880979;27;20083;-66
2023/12/27 07:56:10;;;;;;;5.63;1.20;;;;;;;5.04;70.04;100820.25;31879249;27;30498;-66
2023/12/27 08:11:11;;;;;;;4.32;1.30;;;;;;;8.61;65.36;100835.28;31879838;27;20758;-66
2023/12/27 08:26:11;;;;;;;4.35;1.05;;;;;;;12.70;58.71;100870.03;31877079;27;20039;-66
2023/12/27 08:41:11;;;;;;;8.88;1.60;;;;;;;15.80;52.17;100880.97;31871901;27;20044;-67
2023/12/27 08:56:12;;;;;;;6.57;1.30;;;;;;;18.06;46.18;100891.88;31886202;27;20027;-66
2023/12/27 09:11:13;;;;;;;4.43;1.27;;;;;;;19.40;42.31;100920.88;31731453;27;96914;-66
2023/12/27 09:26:13;;;;;;;6.47;1.30;;;;;;;21.84;36.04;100924.22;31331504;27;96821;-65
2023/12/27 09:41:14;;;;;;;5.78;1.52;;;;;;;22.90;31.68;100914.81;31330246;27;109825;-66
2023/12/27 09:56:15;;;;;;;5.57;1.17;;;;;;;-147.20;100.00;63046.97;31432134;27;97353;-66
2023/12/27 10:11:17;;;;;;;6.32;2.08;;;;;;;-147.20;100.00;63046.97;31937598;27;20031;-66
2023/12/27 10:26:19;;;;;;;9.70;1.77;;;;;;;-147.20;100.00;63046.97;31935285;27;20035;-65
2023/12/27 10:41:22;;;;;;;6.38;1.45;;;;;;;-147.20;100.00;63046.97;31931987;27;20064;-65
2023/12/27 10:56:23;;;;;;;6.67;1.60;;;;;;;-147.20;100.00;63046.97;31930776;27;20100;-66
2023/12/27 11:11:27;;;;;;;9.67;1.60;;;;;;;-147.20;100.00;63046.97;31930129;27;20253;-67
2023/12/27 11:26:27;;;;;;;7.63;1.20;;;;;;;-147.20;100.00;63046.97;31926788;27;20330;-66
2023/12/27 11:41:28;;;;;;;7.20;1.80;;;;;;;-147.20;100.00;63046.97;31926259;27;20656;-66
2023/12/27 11:56:35;;;;;;;6.40;1.48;;;;;;;-147.20;100.00;63046.97;31924937;27;20042;-66
2023/12/27 12:11:36;;;;;;;7.38;1.40;;;;;;;-147.20;100.00;63046.97;31924814;27;20402;-65
2023/12/27 12:26:36;;;;;;;8.02;1.45;;;;;;;-147.20;100.00;63046.97;31920609;27;34779;-67
2023/12/27 12:41:37;;;;;;;6.50;1.30;;;;;;;-147.20;100.00;63046.97;31919023;27;20142;-66
2023/12/27 12:56:39;;;;;;;8.15;1.50;;;;;;;-147.20;100.00;63046.97;31919560;27;21387;-66
2023/12/27 13:11:40;;;;;;;7.40;1.35;;;;;;;-147.20;100.00;63046.97;31916843;27;20032;-65
2023/12/27 13:26:40;;;;;;;4.85;1.20;;;;;;;-147.20;100.00;63046.97;31912593;27;34596;-65
2023/12/27 13:41:40;;;;;;;7.40;2.67;;;;;;;-147.20;100.00;63046.97;31913128;27;20035;-65
2023/12/27 13:56:41;;;;;;;7.25;2.60;;;;;;;-147.20;100.00;63046.97;31912659;27;27544;-65
2023/12/27 14:11:42;;;;;;;21.15;7.38;;;;;;;-147.20;100.00;63046.97;31912244;27;33558;-66
2023/12/27 14:26:42;;;;;;;5.97;2.28;;;;;;;-147.20;100.00;63046.97;31911898;27;20027;-64
2023/12/27 14:41:43;;;;;;;12.43;2.70;;;;;;;-147.20;100.00;63046.97;31916756;27;20749;-66
2023/12/27 14:56:43;;;;;;;12.23;3.50;;;;;;;-147.20;100.00;63046.97;31931391;27;20036;-66
2023/12/27 15:11:44;;;;;;;17.20;5.57;;;;;;;-147.20;100.00;63046.97;31929247;27;35757;-66
2023/12/27 15:26:44;;;;;;;25.08;9.30;;;;;;;-147.20;100.00;63046.97;31942804;27;20032;-66
2023/12/27 15:41:44;;;;;;;33.00;12.68;;;;;;;-147.20;100.00;63046.97;31927106;27;31009;-66
2023/12/27 15:56:45;;;;;;;26.35;12.98;;;;;;;-147.20;100.00;63046.97;31924863;27;35665;-66
2023/12/27 16:11:47;;;;;;;41.28;18.02;;;;;;;-147.20;100.00;63046.97;31924224;27;20020;-66
2023/12/27 16:26:47;;;;;;;37.85;16.98;;;;;;;-147.20;100.00;63046.97;31923651;27;20027;-66
2023/12/27 16:41:47;;;;;;;26.25;13.32;;;;;;;-147.20;100.00;63046.97;31918692;27;33744;-66
2023/12/27 16:56:48;;;;;;;78.13;35.35;;;;;;;-147.20;100.00;63046.97;31919804;27;35813;-66
2023/12/27 17:11:50;;;;;;;59.17;26.30;;;;;;;-147.20;100.00;63046.97;31915650;27;20063;-66
2023/12/27 17:26:50;;;;;;;50.58;20.17;;;;;;;-147.20;100.00;63046.97;31915302;27;31614;-67
2023/12/27 17:41:50;;;;;;;40.38;18.88;;;;;;;-147.20;100.00;63046.97;31913925;27;34433;-67
2023/12/27 17:56:51;;;;;;;46.60;20.08;;;;;;;-147.20;100.00;63046.97;31911281;27;20036;-66
2023/12/27 18:11:51;;;;;;;48.60;16.80;;;;;;;-147.20;100.00;63046.97;31912968;27;20088;-67
2023/12/27 18:26:51;;;;;;;38.50;18.10;;;;;;;-147.20;100.00;63046.97;31933234;27;34767;-67
2023/12/27 18:41:53;;;;;;;36.70;17.10;;;;;;;-147.20;100.00;63046.97;31929549;27;34740;-67
2023/12/27 18:56:53;;;;;;;35.80;14.80;;;;;;;-147.20;100.00;63046.97;31929470;27;20027;-67
2023/12/27 19:11:54;;;;;;;22.67;11.18;;;;;;;-147.20;100.00;63046.97;31929329;27;20028;-67
2023/12/27 19:26:54;;;;;;;29.02;12.13;;;;;;;-147.20;100.00;63046.97;31930129;27;20107;-67
2023/12/27 19:41:55;;;;;;;27.92;12.45;;;;;;;-147.20;100.00;63046.97;31926209;27;20047;-67
2023/12/27 19:56:55;;;;;;;31.60;12.60;;;;;;;-147.20;100.00;63046.97;31925218;27;36124;-67
2023/12/27 20:11:57;;;;;;;32.28;13.82;;;;;;;-147.20;100.00;63046.97;31925355;27;20027;-67
2023/12/27 20:26:57;;;;;;;28.48;14.30;;;;;;;-147.20;100.00;63046.97;31920799;27;20035;-67
2023/12/27 20:41:58;;;;;;;30.00;14.88;;;;;;;-147.20;100.00;63046.97;31916805;27;35638;-67
2023/12/27 20:56:58;;;;;;;33.05;16.15;;;;;;;-147.20;100.00;63046.97;31919877;27;20081;-66
2023/12/27 21:11:58;;;;;;;40.03;17.63;;;;;;;-147.20;100.00;63046.97;31920154;27;20111;-66
2023/12/27 21:26:59;;;;;;;26.48;13.30;;;;;;;-147.20;100.00;63046.97;31917706;27;20439;-66
2023/12/27 21:41:59;;;;;;;28.98;14.57;;;;;;;-147.20;100.00;63046.97;31917690;27;20123;-66
2023/12/27 21:56:59;;;;;;;31.05;14.73;;;;;;;-147.20;100.00;63046.97;31948691;27;34412;-66
2023/12/27 22:12:00;;;;;;;31.42;13.80;;;;;;;-147.20;100.00;63046.97;31956568;27;33346;-67
2023/12/27 22:27:00;;;;;;;28.17;13.65;;;;;;;-147.20;100.00;63046.97;31955748;27;20484;-67
2023/12/27 22:42:01;;;;;;;29.20;12.93;;;;;;;-147.20;100.00;63046.97;31956145;27;20055;-66
2023/12/27 22:57:02;;;;;;;26.45;13.68;;;;;;;-147.20;100.00;63046.97;31954015;27;34561;-66
2023/12/27 23:12:03;;;;;;;29.45;14.35;;;;;;;-147.20;100.00;63046.97;31932452;27;20106;-68
2023/12/27 23:27:03;;;;;;;34.03;13.45;;;;;;;-147.20;100.00;63046.97;31931771;27;20102;-66
2023/12/27 23:42:04;;;;;;;33.25;14.50;;;;;;;-147.20;100.00;63046.97;31930018;27;20040;-66
2023/12/27 23:57:04;;;;;;;24.13;12.38;;;;;;;-147.20;100.00;63046.97;31929038;27;20024;-66
